sensor_id;sensor_type;location;lat;lon;timestamp;P1;durP1;ratioP1;P2;durP2;ratioP2
5981;SDS011;3018;48.730;9.336;2023-03-01T00:01:26;22.42;;;14.25;;
5981;SDS011;3018;48.730;9.336;2023-03-01T00:03:53;21.73;;;14.68;;
5981;SDS011;3018;48.730;9.336;2023-03-01T00:06:20;22.60;;;14.45;;
5981;SDS011;3018;48.730;9.336;2023-03-01T00:08:46;23.13;;;14.25;;
5981;SDS011;3018;48.730;9.336;2023-03-01T00:11:13;21.27;;;14.40;;
5981;SDS011;3018;48.730;9.336;2023-03-01T00:13:41;21.50;;;14.10;;
5981;SDS011;3018;48.730;9.336;2023-03-01T00:16:08;20.40;;;14.25;;
5981;SDS011;3018;48.730;9.336;2023-03-01T00:18:34;21.33;;;13.82;;
5981;SDS011;3018;48.730;9.336;2023-03-01T00:21:01;21.23;;;13.30;;
5981;SDS011;3018;48.730;9.336;2023-03-01T00:23:27;20.80;;;13.18;;
5981;SDS011;3018;48.730;9.336;2023-03-01T00:25:53;15.32;;;12.98;;
5981;SDS011;3018;48.730;9.336;2023-03-01T00:28:20;17.80;;;12.93;;
5981;SDS011;3018;48.730;9.336;2023-03-01T00:30:48;18.42;;;12.75;;
5981;SDS011;3018;48.730;9.336;2023-03-01T00:33:14;18.30;;;12.65;;
5981;SDS011;3018;48.730;9.336;2023-03-01T00:35:40;16.70;;;12.93;;
5981;SDS011;3018;48.730;9.336;2023-03-01T00:38:06;17.23;;;13.02;;
5981;SDS011;3018;48.730;9.336;2023-03-01T00:40:33;20.23;;;12.40;;
5981;SDS011;3018;48.730;9.336;2023-03-01T00:43:00;17.00;;;12.68;;
5981;SDS011;3018;48.730;9.336;2023-03-01T00:45:26;17.77;;;12.80;;
5981;SDS011;3018;48.730;9.336;2023-03-01T00:47:54;20.58;;;12.68;;
5981;SDS011;3018;48.730;9.336;2023-03-01T00:50:20;19.40;;;12.10;;
5981;SDS011;3018;48.730;9.336;2023-03-01T00:52:46;16.10;;;12.48;;
5981;SDS011;3018;48.730;9.336;2023-03-01T00:55:13;20.45;;;13.10;;
5981;SDS011;3018;48.730;9.336;2023-03-01T00:57:39;20.60;;;13.98;;
5981;SDS011;3018;48.730;9.336;2023-03-01T01:00:06;23.05;;;13.85;;
5981;SDS011;3018;48.730;9.336;2023-03-01T01:02:33;23.02;;;13.02;;
5981;SDS011;3018;48.730;9.336;2023-03-01T01:05:00;16.20;;;12.68;;
5981;SDS011;3018;48.730;9.336;2023-03-01T01:07:27;19.98;;;13.48;;
5981;SDS011;3018;48.730;9.336;2023-03-01T01:09:53;16.77;;;12.30;;
5981;SDS011;3018;48.730;9.336;2023-03-01T01:12:19;23.92;;;13.77;;
5981;SDS011;3018;48.730;9.336;2023-03-01T01:14:45;19.15;;;13.43;;
5981;SDS011;3018;48.730;9.336;2023-03-01T01:17:12;22.00;;;13.55;;
5981;SDS011;3018;48.730;9.336;2023-03-01T01:19:38;17.15;;;12.73;;
5981;SDS011;3018;48.730;9.336;2023-03-01T01:22:06;17.95;;;13.25;;
5981;SDS011;3018;48.730;9.336;2023-03-01T01:24:32;19.42;;;13.82;;
5981;SDS011;3018;48.730;9.336;2023-03-01T01:26:58;19.15;;;13.43;;
5981;SDS011;3018;48.730;9.336;2023-03-01T01:29:24;17.90;;;12.60;;
5981;SDS011;3018;48.730;9.336;2023-03-01T01:31:51;18.38;;;13.52;;
5981;SDS011;3018;48.730;9.336;2023-03-01T01:34:18;20.13;;;13.77;;
5981;SDS011;3018;48.730;9.336;2023-03-01T01:36:47;20.17;;;12.80;;
5981;SDS011;3018;48.730;9.336;2023-03-01T01:39:15;17.27;;;13.48;;
5981;SDS011;3018;48.730;9.336;2023-03-01T01:41:41;22.75;;;14.70;;
5981;SDS011;3018;48.730;9.336;2023-03-01T01:44:12;20.50;;;14.55;;
5981;SDS011;3018;48.730;9.336;2023-03-01T01:46:39;18.08;;;12.80;;
5981;SDS011;3018;48.730;9.336;2023-03-01T01:49:07;17.70;;;13.13;;
5981;SDS011;3018;48.730;9.336;2023-03-01T01:51:37;19.48;;;14.55;;
5981;SDS011;3018;48.730;9.336;2023-03-01T01:54:05;20.10;;;13.50;;
5981;SDS011;3018;48.730;9.336;2023-03-01T01:56:35;20.02;;;13.68;;
5981;SDS011;3018;48.730;9.336;2023-03-01T01:59:04;20.48;;;14.18;;
5981;SDS011;3018;48.730;9.336;2023-03-01T02:01:30;18.40;;;13.80;;
5981;SDS011;3018;48.730;9.336;2023-03-01T02:03:56;18.40;;;13.65;;
5981;SDS011;3018;48.730;9.336;2023-03-01T02:09:26;20.02;;;13.85;;
5981;SDS011;3018;48.730;9.336;2023-03-01T02:11:54;20.27;;;14.20;;
5981;SDS011;3018;48.730;9.336;2023-03-01T02:14:20;19.52;;;13.80;;
5981;SDS011;3018;48.730;9.336;2023-03-01T02:16:46;20.85;;;14.77;;
5981;SDS011;3018;48.730;9.336;2023-03-01T02:19:16;22.48;;;14.55;;
5981;SDS011;3018;48.730;9.336;2023-03-01T02:21:46;20.08;;;13.65;;
5981;SDS011;3018;48.730;9.336;2023-03-01T02:24:17;23.17;;;14.88;;
5981;SDS011;3018;48.730;9.336;2023-03-01T02:26:50;22.63;;;13.93;;
5981;SDS011;3018;48.730;9.336;2023-03-01T02:29:18;21.05;;;14.05;;
5981;SDS011;3018;48.730;9.336;2023-03-01T02:31:45;19.00;;;14.02;;
5981;SDS011;3018;48.730;9.336;2023-03-01T02:34:11;21.38;;;14.85;;
5981;SDS011;3018;48.730;9.336;2023-03-01T02:36:38;23.25;;;13.93;;
5981;SDS011;3018;48.730;9.336;2023-03-01T02:39:06;19.95;;;14.50;;
5981;SDS011;3018;48.730;9.336;2023-03-01T02:41:34;17.55;;;13.63;;
5981;SDS011;3018;48.730;9.336;2023-03-01T02:44:01;18.92;;;13.70;;
5981;SDS011;3018;48.730;9.336;2023-03-01T02:46:29;19.95;;;13.32;;
5981;SDS011;3018;48.730;9.336;2023-03-01T02:48:56;19.35;;;13.98;;
5981;SDS011;3018;48.730;9.336;2023-03-01T02:51:25;18.73;;;14.00;;
5981;SDS011;3018;48.730;9.336;2023-03-01T02:53:56;18.60;;;13.85;;
5981;SDS011;3018;48.730;9.336;2023-03-01T02:56:26;19.77;;;13.30;;
5981;SDS011;3018;48.730;9.336;2023-03-01T02:58:53;19.27;;;13.93;;
5981;SDS011;3018;48.730;9.336;2023-03-01T03:01:19;20.25;;;14.20;;
5981;SDS011;3018;48.730;9.336;2023-03-01T03:03:47;18.40;;;14.23;;
5981;SDS011;3018;48.730;9.336;2023-03-01T03:06:13;23.17;;;14.35;;
5981;SDS011;3018;48.730;9.336;2023-03-01T03:08:39;19.65;;;13.73;;
5981;SDS011;3018;48.730;9.336;2023-03-01T03:11:05;19.55;;;14.32;;
5981;SDS011;3018;48.730;9.336;2023-03-01T03:13:31;18.25;;;13.63;;
5981;SDS011;3018;48.730;9.336;2023-03-01T03:15:58;19.65;;;14.07;;
5981;SDS011;3018;48.730;9.336;2023-03-01T03:18:24;19.95;;;14.25;;
5981;SDS011;3018;48.730;9.336;2023-03-01T03:20:53;21.35;;;14.50;;
5981;SDS011;3018;48.730;9.336;2023-03-01T03:23:19;20.58;;;14.43;;
5981;SDS011;3018;48.730;9.336;2023-03-01T03:25:47;18.65;;;14.00;;
5981;SDS011;3018;48.730;9.336;2023-03-01T03:28:13;18.58;;;13.65;;
5981;SDS011;3018;48.730;9.336;2023-03-01T03:30:41;21.10;;;15.10;;
5981;SDS011;3018;48.730;9.336;2023-03-01T03:33:07;23.23;;;14.30;;
5981;SDS011;3018;48.730;9.336;2023-03-01T03:35:38;18.42;;;14.02;;
5981;SDS011;3018;48.730;9.336;2023-03-01T03:38:07;21.67;;;14.63;;
5981;SDS011;3018;48.730;9.336;2023-03-01T03:40:41;17.48;;;14.02;;
5981;SDS011;3018;48.730;9.336;2023-03-01T03:43:08;21.80;;;15.32;;
5981;SDS011;3018;48.730;9.336;2023-03-01T03:45:34;19.42;;;14.93;;
5981;SDS011;3018;48.730;9.336;2023-03-01T03:48:01;21.88;;;15.35;;
5981;SDS011;3018;48.730;9.336;2023-03-01T03:50:28;20.05;;;14.75;;
5981;SDS011;3018;48.730;9.336;2023-03-01T03:52:54;24.20;;;15.90;;
5981;SDS011;3018;48.730;9.336;2023-03-01T03:55:22;20.45;;;14.73;;
5981;SDS011;3018;48.730;9.336;2023-03-01T03:57:53;20.05;;;13.82;;
5981;SDS011;3018;48.730;9.336;2023-03-01T04:00:20;21.30;;;15.50;;
5981;SDS011;3018;48.730;9.336;2023-03-01T04:02:49;21.67;;;15.25;;
5981;SDS011;3018;48.730;9.336;2023-03-01T04:05:16;21.48;;;15.10;;
5981;SDS011;3018;48.730;9.336;2023-03-01T04:07:43;22.10;;;15.65;;
5981;SDS011;3018;48.730;9.336;2023-03-01T04:10:10;22.35;;;15.60;;
5981;SDS011;3018;48.730;9.336;2023-03-01T04:12:38;20.08;;;15.10;;
5981;SDS011;3018;48.730;9.336;2023-03-01T04:15:05;23.60;;;15.25;;
5981;SDS011;3018;48.730;9.336;2023-03-01T04:17:38;24.50;;;15.35;;
5981;SDS011;3018;48.730;9.336;2023-03-01T04:20:04;22.08;;;15.27;;
5981;SDS011;3018;48.730;9.336;2023-03-01T04:22:32;22.02;;;15.02;;
5981;SDS011;3018;48.730;9.336;2023-03-01T04:24:59;22.58;;;15.73;;
5981;SDS011;3018;48.730;9.336;2023-03-01T04:27:26;23.20;;;16.23;;
5981;SDS011;3018;48.730;9.336;2023-03-01T04:29:54;22.25;;;16.02;;
5981;SDS011;3018;48.730;9.336;2023-03-01T04:32:20;23.48;;;16.20;;
5981;SDS011;3018;48.730;9.336;2023-03-01T04:34:46;24.35;;;16.70;;
5981;SDS011;3018;48.730;9.336;2023-03-01T04:37:13;22.33;;;16.48;;
5981;SDS011;3018;48.730;9.336;2023-03-01T04:39:40;24.77;;;16.02;;
5981;SDS011;3018;48.730;9.336;2023-03-01T04:42:12;27.52;;;16.33;;
5981;SDS011;3018;48.730;9.336;2023-03-01T04:44:38;21.52;;;15.43;;
5981;SDS011;3018;48.730;9.336;2023-03-01T04:47:06;23.42;;;16.50;;
5981;SDS011;3018;48.730;9.336;2023-03-01T04:49:32;21.67;;;15.93;;
5981;SDS011;3018;48.730;9.336;2023-03-01T04:51:58;21.45;;;15.93;;
5981;SDS011;3018;48.730;9.336;2023-03-01T04:54:27;22.98;;;15.65;;
5981;SDS011;3018;48.730;9.336;2023-03-01T04:56:53;23.63;;;16.63;;
5981;SDS011;3018;48.730;9.336;2023-03-01T04:59:19;21.65;;;15.85;;
5981;SDS011;3018;48.730;9.336;2023-03-01T05:01:47;21.63;;;16.60;;
5981;SDS011;3018;48.730;9.336;2023-03-01T05:04:15;21.42;;;15.60;;
5981;SDS011;3018;48.730;9.336;2023-03-01T05:06:41;22.95;;;15.88;;
5981;SDS011;3018;48.730;9.336;2023-03-01T05:09:07;26.65;;;17.05;;
5981;SDS011;3018;48.730;9.336;2023-03-01T05:11:33;23.85;;;17.48;;
5981;SDS011;3018;48.730;9.336;2023-03-01T05:14:01;25.95;;;17.60;;
5981;SDS011;3018;48.730;9.336;2023-03-01T05:16:27;22.58;;;16.60;;
5981;SDS011;3018;48.730;9.336;2023-03-01T05:18:55;22.95;;;16.58;;
5981;SDS011;3018;48.730;9.336;2023-03-01T05:21:23;22.85;;;16.50;;
5981;SDS011;3018;48.730;9.336;2023-03-01T05:23:49;24.75;;;16.10;;
5981;SDS011;3018;48.730;9.336;2023-03-01T05:26:16;22.83;;;16.17;;
5981;SDS011;3018;48.730;9.336;2023-03-01T05:28:43;26.10;;;16.88;;
5981;SDS011;3018;48.730;9.336;2023-03-01T05:31:09;22.67;;;16.20;;
5981;SDS011;3018;48.730;9.336;2023-03-01T05:33:35;25.17;;;16.58;;
5981;SDS011;3018;48.730;9.336;2023-03-01T05:36:02;28.08;;;16.65;;
5981;SDS011;3018;48.730;9.336;2023-03-01T05:38:30;24.90;;;16.50;;
5981;SDS011;3018;48.730;9.336;2023-03-01T05:40:56;23.65;;;16.50;;
5981;SDS011;3018;48.730;9.336;2023-03-01T05:43:22;23.42;;;16.35;;
5981;SDS011;3018;48.730;9.336;2023-03-01T05:45:48;25.33;;;17.17;;
5981;SDS011;3018;48.730;9.336;2023-03-01T05:48:15;29.17;;;17.58;;
5981;SDS011;3018;48.730;9.336;2023-03-01T05:50:41;24.33;;;16.05;;
5981;SDS011;3018;48.730;9.336;2023-03-01T05:53:09;21.33;;;15.63;;
5981;SDS011;3018;48.730;9.336;2023-03-01T05:55:37;23.38;;;17.25;;
5981;SDS011;3018;48.730;9.336;2023-03-01T05:58:05;24.13;;;17.27;;
5981;SDS011;3018;48.730;9.336;2023-03-01T06:00:32;21.52;;;15.70;;
5981;SDS011;3018;48.730;9.336;2023-03-01T06:02:59;23.63;;;16.50;;
5981;SDS011;3018;48.730;9.336;2023-03-01T06:05:26;29.38;;;17.75;;
5981;SDS011;3018;48.730;9.336;2023-03-01T06:07:52;25.90;;;16.95;;
5981;SDS011;3018;48.730;9.336;2023-03-01T06:10:20;25.90;;;17.83;;
5981;SDS011;3018;48.730;9.336;2023-03-01T06:12:47;26.70;;;17.20;;
5981;SDS011;3018;48.730;9.336;2023-03-01T06:15:14;26.40;;;17.10;;
5981;SDS011;3018;48.730;9.336;2023-03-01T06:17:42;26.20;;;16.73;;
5981;SDS011;3018;48.730;9.336;2023-03-01T06:20:10;21.55;;;16.30;;
5981;SDS011;3018;48.730;9.336;2023-03-01T06:22:37;25.20;;;17.48;;
5981;SDS011;3018;48.730;9.336;2023-03-01T06:25:04;23.80;;;16.20;;
5981;SDS011;3018;48.730;9.336;2023-03-01T06:27:30;22.15;;;16.02;;
5981;SDS011;3018;48.730;9.336;2023-03-01T06:29:58;23.30;;;16.67;;
5981;SDS011;3018;48.730;9.336;2023-03-01T06:32:24;23.27;;;16.70;;
5981;SDS011;3018;48.730;9.336;2023-03-01T06:34:50;23.48;;;17.33;;
5981;SDS011;3018;48.730;9.336;2023-03-01T06:37:17;22.77;;;17.25;;
5981;SDS011;3018;48.730;9.336;2023-03-01T06:39:43;27.08;;;18.02;;
5981;SDS011;3018;48.730;9.336;2023-03-01T06:42:09;25.63;;;16.58;;
5981;SDS011;3018;48.730;9.336;2023-03-01T06:44:36;25.13;;;17.30;;
5981;SDS011;3018;48.730;9.336;2023-03-01T06:47:03;24.38;;;16.65;;
5981;SDS011;3018;48.730;9.336;2023-03-01T06:49:30;25.48;;;16.25;;
5981;SDS011;3018;48.730;9.336;2023-03-01T06:51:56;24.33;;;16.45;;
5981;SDS011;3018;48.730;9.336;2023-03-01T06:54:23;22.13;;;15.73;;
5981;SDS011;3018;48.730;9.336;2023-03-01T06:56:49;23.77;;;16.25;;
5981;SDS011;3018;48.730;9.336;2023-03-01T06:59:16;21.85;;;16.25;;
5981;SDS011;3018;48.730;9.336;2023-03-01T07:01:42;22.83;;;15.95;;
5981;SDS011;3018;48.730;9.336;2023-03-01T07:04:10;28.65;;;16.67;;
5981;SDS011;3018;48.730;9.336;2023-03-01T07:06:36;23.60;;;16.38;;
5981;SDS011;3018;48.730;9.336;2023-03-01T07:09:03;25.77;;;16.90;;
5981;SDS011;3018;48.730;9.336;2023-03-01T07:11:29;24.25;;;16.08;;
5981;SDS011;3018;48.730;9.336;2023-03-01T07:13:55;24.92;;;17.05;;
5981;SDS011;3018;48.730;9.336;2023-03-01T07:16:23;27.35;;;17.05;;
5981;SDS011;3018;48.730;9.336;2023-03-01T07:18:49;23.23;;;16.40;;
5981;SDS011;3018;48.730;9.336;2023-03-01T07:21:17;31.33;;;18.05;;
5981;SDS011;3018;48.730;9.336;2023-03-01T07:23:43;22.95;;;16.33;;
5981;SDS011;3018;48.730;9.336;2023-03-01T07:26:09;25.17;;;17.38;;
5981;SDS011;3018;48.730;9.336;2023-03-01T07:28:36;28.52;;;17.80;;
5981;SDS011;3018;48.730;9.336;2023-03-01T07:31:04;25.05;;;18.13;;
5981;SDS011;3018;48.730;9.336;2023-03-01T07:33:30;26.73;;;17.73;;
5981;SDS011;3018;48.730;9.336;2023-03-01T07:35:57;30.83;;;16.95;;
5981;SDS011;3018;48.730;9.336;2023-03-01T07:38:25;26.27;;;17.55;;
5981;SDS011;3018;48.730;9.336;2023-03-01T07:40:51;24.40;;;16.35;;
5981;SDS011;3018;48.730;9.336;2023-03-01T07:43:18;25.08;;;15.95;;
5981;SDS011;3018;48.730;9.336;2023-03-01T07:45:44;22.80;;;16.52;;
5981;SDS011;3018;48.730;9.336;2023-03-01T07:48:10;24.10;;;16.92;;
5981;SDS011;3018;48.730;9.336;2023-03-01T07:50:36;24.23;;;17.40;;
5981;SDS011;3018;48.730;9.336;2023-03-01T07:53:03;26.65;;;17.27;;
5981;SDS011;3018;48.730;9.336;2023-03-01T07:55:31;26.08;;;17.02;;
5981;SDS011;3018;48.730;9.336;2023-03-01T07:57:57;22.98;;;16.92;;
5981;SDS011;3018;48.730;9.336;2023-03-01T08:00:23;24.10;;;16.73;;
5981;SDS011;3018;48.730;9.336;2023-03-01T08:02:49;23.38;;;17.48;;
5981;SDS011;3018;48.730;9.336;2023-03-01T08:05:16;25.17;;;17.15;;
5981;SDS011;3018;48.730;9.336;2023-03-01T08:07:42;24.60;;;16.80;;
5981;SDS011;3018;48.730;9.336;2023-03-01T08:10:09;24.30;;;17.00;;
5981;SDS011;3018;48.730;9.336;2023-03-01T08:12:37;26.95;;;17.30;;
5981;SDS011;3018;48.730;9.336;2023-03-01T08:15:03;24.25;;;17.50;;
5981;SDS011;3018;48.730;9.336;2023-03-01T08:17:30;25.85;;;17.75;;
5981;SDS011;3018;48.730;9.336;2023-03-01T08:19:56;25.88;;;16.60;;
5981;SDS011;3018;48.730;9.336;2023-03-01T08:22:22;24.50;;;17.15;;
5981;SDS011;3018;48.730;9.336;2023-03-01T08:24:48;28.13;;;17.65;;
5981;SDS011;3018;48.730;9.336;2023-03-01T08:27:15;25.30;;;17.85;;
5981;SDS011;3018;48.730;9.336;2023-03-01T08:29:43;24.23;;;17.13;;
5981;SDS011;3018;48.730;9.336;2023-03-01T08:32:09;24.92;;;17.35;;
5981;SDS011;3018;48.730;9.336;2023-03-01T08:34:35;29.15;;;17.55;;
5981;SDS011;3018;48.730;9.336;2023-03-01T08:37:01;25.52;;;17.70;;
5981;SDS011;3018;48.730;9.336;2023-03-01T08:39:28;23.30;;;17.23;;
5981;SDS011;3018;48.730;9.336;2023-03-01T08:41:54;25.63;;;16.80;;
5981;SDS011;3018;48.730;9.336;2023-03-01T08:44:20;27.23;;;16.73;;
5981;SDS011;3018;48.730;9.336;2023-03-01T08:46:48;28.10;;;17.40;;
5981;SDS011;3018;48.730;9.336;2023-03-01T08:49:17;23.77;;;16.90;;
5981;SDS011;3018;48.730;9.336;2023-03-01T08:51:43;27.30;;;18.33;;
5981;SDS011;3018;48.730;9.336;2023-03-01T08:54:10;27.08;;;17.40;;
5981;SDS011;3018;48.730;9.336;2023-03-01T08:56:37;27.02;;;17.70;;
5981;SDS011;3018;48.730;9.336;2023-03-01T08:59:03;22.75;;;16.10;;
5981;SDS011;3018;48.730;9.336;2023-03-01T09:01:29;22.33;;;16.23;;
5981;SDS011;3018;48.730;9.336;2023-03-01T09:03:57;25.27;;;17.48;;
5981;SDS011;3018;48.730;9.336;2023-03-01T09:06:23;22.90;;;16.70;;
5981;SDS011;3018;48.730;9.336;2023-03-01T09:08:50;22.13;;;16.88;;
5981;SDS011;3018;48.730;9.336;2023-03-01T09:11:17;23.52;;;16.55;;
5981;SDS011;3018;48.730;9.336;2023-03-01T09:13:44;24.10;;;16.20;;
5981;SDS011;3018;48.730;9.336;2023-03-01T09:16:11;25.15;;;17.80;;
5981;SDS011;3018;48.730;9.336;2023-03-01T09:18:37;23.25;;;16.75;;
5981;SDS011;3018;48.730;9.336;2023-03-01T09:21:06;25.80;;;17.30;;
5981;SDS011;3018;48.730;9.336;2023-03-01T09:23:33;26.05;;;16.85;;
5981;SDS011;3018;48.730;9.336;2023-03-01T09:25:59;21.98;;;16.65;;
5981;SDS011;3018;48.730;9.336;2023-03-01T09:28:25;25.15;;;17.02;;
5981;SDS011;3018;48.730;9.336;2023-03-01T09:30:51;24.83;;;17.45;;
5981;SDS011;3018;48.730;9.336;2023-03-01T09:33:18;23.52;;;16.88;;
5981;SDS011;3018;48.730;9.336;2023-03-01T09:35:44;23.38;;;16.67;;
5981;SDS011;3018;48.730;9.336;2023-03-01T09:38:13;22.00;;;15.65;;
5981;SDS011;3018;48.730;9.336;2023-03-01T09:40:41;23.55;;;16.63;;
5981;SDS011;3018;48.730;9.336;2023-03-01T09:43:12;24.13;;;17.33;;
5981;SDS011;3018;48.730;9.336;2023-03-01T09:45:41;23.25;;;17.05;;
5981;SDS011;3018;48.730;9.336;2023-03-01T09:48:12;27.67;;;16.83;;
5981;SDS011;3018;48.730;9.336;2023-03-01T09:50:41;25.75;;;16.80;;
5981;SDS011;3018;48.730;9.336;2023-03-01T09:53:10;24.45;;;17.08;;
5981;SDS011;3018;48.730;9.336;2023-03-01T09:55:39;24.35;;;17.52;;
5981;SDS011;3018;48.730;9.336;2023-03-01T09:58:16;21.58;;;16.13;;
5981;SDS011;3018;48.730;9.336;2023-03-01T10:00:46;22.83;;;16.65;;
5981;SDS011;3018;48.730;9.336;2023-03-01T10:03:16;22.88;;;16.45;;
5981;SDS011;3018;48.730;9.336;2023-03-01T10:05:46;21.20;;;16.55;;
5981;SDS011;3018;48.730;9.336;2023-03-01T10:08:29;21.55;;;16.65;;
5981;SDS011;3018;48.730;9.336;2023-03-01T10:10:59;23.33;;;16.23;;
5981;SDS011;3018;48.730;9.336;2023-03-01T10:13:27;26.20;;;15.98;;
5981;SDS011;3018;48.730;9.336;2023-03-01T10:15:56;22.75;;;16.85;;
5981;SDS011;3018;48.730;9.336;2023-03-01T10:18:24;22.45;;;16.98;;
5981;SDS011;3018;48.730;9.336;2023-03-01T10:20:53;21.92;;;16.42;;
5981;SDS011;3018;48.730;9.336;2023-03-01T10:23:19;21.63;;;17.05;;
5981;SDS011;3018;48.730;9.336;2023-03-01T10:25:47;21.23;;;15.20;;
5981;SDS011;3018;48.730;9.336;2023-03-01T10:28:17;21.40;;;16.77;;
5981;SDS011;3018;48.730;9.336;2023-03-01T10:30:46;19.65;;;16.27;;
5981;SDS011;3018;48.730;9.336;2023-03-01T10:33:14;23.38;;;16.42;;
5981;SDS011;3018;48.730;9.336;2023-03-01T10:35:41;22.02;;;15.13;;
5981;SDS011;3018;48.730;9.336;2023-03-01T10:38:08;23.35;;;16.13;;
5981;SDS011;3018;48.730;9.336;2023-03-01T10:40:35;19.55;;;15.25;;
5981;SDS011;3018;48.730;9.336;2023-03-01T10:43:02;20.20;;;15.48;;
5981;SDS011;3018;48.730;9.336;2023-03-01T10:45:34;24.48;;;16.05;;
5981;SDS011;3018;48.730;9.336;2023-03-01T10:48:05;19.67;;;16.08;;
5981;SDS011;3018;48.730;9.336;2023-03-01T10:50:31;18.48;;;15.38;;
5981;SDS011;3018;48.730;9.336;2023-03-01T10:52:59;22.00;;;15.90;;
5981;SDS011;3018;48.730;9.336;2023-03-01T10:55:26;23.40;;;16.50;;
5981;SDS011;3018;48.730;9.336;2023-03-01T10:58:05;26.40;;;16.00;;
5981;SDS011;3018;48.730;9.336;2023-03-01T11:00:34;23.30;;;15.52;;
5981;SDS011;3018;48.730;9.336;2023-03-01T11:03:11;22.73;;;15.82;;
5981;SDS011;3018;48.730;9.336;2023-03-01T11:05:44;22.52;;;15.57;;
5981;SDS011;3018;48.730;9.336;2023-03-01T11:08:25;21.15;;;15.77;;
5981;SDS011;3018;48.730;9.336;2023-03-01T11:11:01;19.80;;;15.05;;
5981;SDS011;3018;48.730;9.336;2023-03-01T11:13:29;19.90;;;15.52;;
5981;SDS011;3018;48.730;9.336;2023-03-01T11:16:00;19.02;;;15.18;;
5981;SDS011;3018;48.730;9.336;2023-03-01T11:18:27;21.13;;;15.77;;
5981;SDS011;3018;48.730;9.336;2023-03-01T11:20:55;19.15;;;15.32;;
5981;SDS011;3018;48.730;9.336;2023-03-01T11:23:21;20.65;;;15.77;;
5981;SDS011;3018;48.730;9.336;2023-03-01T11:25:49;20.80;;;15.80;;
5981;SDS011;3018;48.730;9.336;2023-03-01T11:28:17;22.50;;;15.95;;
5981;SDS011;3018;48.730;9.336;2023-03-01T11:30:46;23.20;;;16.50;;
5981;SDS011;3018;48.730;9.336;2023-03-01T11:33:18;19.30;;;14.68;;
5981;SDS011;3018;48.730;9.336;2023-03-01T11:35:47;18.70;;;14.68;;
5981;SDS011;3018;48.730;9.336;2023-03-01T11:38:16;19.83;;;16.08;;
5981;SDS011;3018;48.730;9.336;2023-03-01T11:40:44;19.27;;;14.93;;
5981;SDS011;3018;48.730;9.336;2023-03-01T11:43:15;18.42;;;15.05;;
5981;SDS011;3018;48.730;9.336;2023-03-01T11:45:46;20.42;;;15.27;;
5981;SDS011;3018;48.730;9.336;2023-03-01T11:48:26;18.20;;;14.50;;
5981;SDS011;3018;48.730;9.336;2023-03-01T11:50:56;18.17;;;14.95;;
5981;SDS011;3018;48.730;9.336;2023-03-01T11:53:28;18.33;;;14.30;;
5981;SDS011;3018;48.730;9.336;2023-03-01T11:56:00;18.98;;;13.75;;
5981;SDS011;3018;48.730;9.336;2023-03-01T11:58:38;22.90;;;14.60;;
5981;SDS011;3018;48.730;9.336;2023-03-01T12:01:12;20.27;;;14.60;;
5981;SDS011;3018;48.730;9.336;2023-03-01T12:03:55;17.25;;;14.13;;
5981;SDS011;3018;48.730;9.336;2023-03-01T12:06:27;20.23;;;15.50;;
5981;SDS011;3018;48.730;9.336;2023-03-01T12:09:01;16.48;;;14.07;;
5981;SDS011;3018;48.730;9.336;2023-03-01T12:11:31;17.40;;;14.13;;
5981;SDS011;3018;48.730;9.336;2023-03-01T12:14:07;21.15;;;14.98;;
5981;SDS011;3018;48.730;9.336;2023-03-01T12:16:48;19.05;;;14.32;;
5981;SDS011;3018;48.730;9.336;2023-03-01T12:19:24;17.88;;;14.68;;
5981;SDS011;3018;48.730;9.336;2023-03-01T12:21:59;17.80;;;13.95;;
5981;SDS011;3018;48.730;9.336;2023-03-01T12:27:19;18.98;;;13.52;;
5981;SDS011;3018;48.730;9.336;2023-03-01T12:29:49;16.83;;;13.77;;
5981;SDS011;3018;48.730;9.336;2023-03-01T12:32:22;19.58;;;13.50;;
5981;SDS011;3018;48.730;9.336;2023-03-01T12:35:05;16.88;;;14.02;;
5981;SDS011;3018;48.730;9.336;2023-03-01T12:37:40;19.13;;;14.02;;
5981;SDS011;3018;48.730;9.336;2023-03-01T12:40:15;19.73;;;14.70;;
5981;SDS011;3018;48.730;9.336;2023-03-01T12:42:47;20.70;;;14.52;;
5981;SDS011;3018;48.730;9.336;2023-03-01T12:45:24;16.75;;;13.98;;
5981;SDS011;3018;48.730;9.336;2023-03-01T12:47:55;15.65;;;14.02;;
5981;SDS011;3018;48.730;9.336;2023-03-01T12:50:25;16.40;;;14.23;;
5981;SDS011;3018;48.730;9.336;2023-03-01T12:52:55;21.13;;;16.15;;
5981;SDS011;3018;48.730;9.336;2023-03-01T12:55:25;19.08;;;14.02;;
5981;SDS011;3018;48.730;9.336;2023-03-01T12:57:53;16.60;;;13.93;;
5981;SDS011;3018;48.730;9.336;2023-03-01T13:00:23;19.10;;;14.65;;
5981;SDS011;3018;48.730;9.336;2023-03-01T13:02:52;17.77;;;14.35;;
5981;SDS011;3018;48.730;9.336;2023-03-01T13:05:26;17.52;;;13.85;;
5981;SDS011;3018;48.730;9.336;2023-03-01T13:07:57;17.75;;;15.00;;
5981;SDS011;3018;48.730;9.336;2023-03-01T13:10:26;19.00;;;13.77;;
5981;SDS011;3018;48.730;9.336;2023-03-01T13:13:03;18.88;;;14.45;;
5981;SDS011;3018;48.730;9.336;2023-03-01T13:15:37;18.25;;;14.57;;
5981;SDS011;3018;48.730;9.336;2023-03-01T13:18:04;18.13;;;14.55;;
5981;SDS011;3018;48.730;9.336;2023-03-01T13:20:52;16.25;;;13.98;;
5981;SDS011;3018;48.730;9.336;2023-03-01T13:23:24;15.82;;;13.93;;
5981;SDS011;3018;48.730;9.336;2023-03-01T13:26:04;15.70;;;14.10;;
5981;SDS011;3018;48.730;9.336;2023-03-01T13:28:37;17.45;;;12.77;;
5981;SDS011;3018;48.730;9.336;2023-03-01T13:31:06;16.70;;;13.48;;
5981;SDS011;3018;48.730;9.336;2023-03-01T13:33:37;15.02;;;13.10;;
5981;SDS011;3018;48.730;9.336;2023-03-01T13:36:07;14.68;;;12.95;;
5981;SDS011;3018;48.730;9.336;2023-03-01T13:38:36;15.23;;;13.63;;
5981;SDS011;3018;48.730;9.336;2023-03-01T13:41:03;16.30;;;12.80;;
5981;SDS011;3018;48.730;9.336;2023-03-01T13:43:30;15.93;;;13.23;;
5981;SDS011;3018;48.730;9.336;2023-03-01T13:45:57;13.95;;;12.45;;
5981;SDS011;3018;48.730;9.336;2023-03-01T13:48:24;14.30;;;12.65;;
5981;SDS011;3018;48.730;9.336;2023-03-01T13:50:53;14.60;;;12.25;;
5981;SDS011;3018;48.730;9.336;2023-03-01T13:53:22;13.60;;;11.35;;
5981;SDS011;3018;48.730;9.336;2023-03-01T13:55:50;13.70;;;11.77;;
5981;SDS011;3018;48.730;9.336;2023-03-01T13:58:21;14.43;;;12.13;;
5981;SDS011;3018;48.730;9.336;2023-03-01T14:00:47;14.75;;;13.02;;
5981;SDS011;3018;48.730;9.336;2023-03-01T14:03:20;15.30;;;12.95;;
5981;SDS011;3018;48.730;9.336;2023-03-01T14:05:57;19.05;;;12.85;;
5981;SDS011;3018;48.730;9.336;2023-03-01T14:08:26;15.63;;;11.95;;
5981;SDS011;3018;48.730;9.336;2023-03-01T14:11:06;14.18;;;11.38;;
5981;SDS011;3018;48.730;9.336;2023-03-01T14:13:45;16.00;;;11.93;;
5981;SDS011;3018;48.730;9.336;2023-03-01T14:16:18;13.82;;;12.00;;
5981;SDS011;3018;48.730;9.336;2023-03-01T14:18:47;15.88;;;12.13;;
5981;SDS011;3018;48.730;9.336;2023-03-01T14:21:18;16.13;;;12.85;;
5981;SDS011;3018;48.730;9.336;2023-03-01T14:23:45;18.67;;;13.40;;
5981;SDS011;3018;48.730;9.336;2023-03-01T14:26:12;18.65;;;13.60;;
5981;SDS011;3018;48.730;9.336;2023-03-01T14:28:38;16.02;;;12.75;;
5981;SDS011;3018;48.730;9.336;2023-03-01T14:33:46;15.70;;;12.40;;
5981;SDS011;3018;48.730;9.336;2023-03-01T14:36:25;16.08;;;13.45;;
5981;SDS011;3018;48.730;9.336;2023-03-01T14:38:53;15.43;;;12.90;;
5981;SDS011;3018;48.730;9.336;2023-03-01T14:41:20;17.08;;;13.50;;
5981;SDS011;3018;48.730;9.336;2023-03-01T14:43:49;16.33;;;12.75;;
5981;SDS011;3018;48.730;9.336;2023-03-01T14:46:17;20.10;;;13.48;;
5981;SDS011;3018;48.730;9.336;2023-03-01T14:48:43;16.85;;;13.52;;
5981;SDS011;3018;48.730;9.336;2023-03-01T14:51:09;16.50;;;13.00;;
5981;SDS011;3018;48.730;9.336;2023-03-01T14:53:36;17.27;;;13.50;;
5981;SDS011;3018;48.730;9.336;2023-03-01T14:56:04;16.40;;;12.98;;
5981;SDS011;3018;48.730;9.336;2023-03-01T14:58:31;17.55;;;12.57;;
5981;SDS011;3018;48.730;9.336;2023-03-01T15:00:59;17.52;;;14.05;;
5981;SDS011;3018;48.730;9.336;2023-03-01T15:03:27;15.60;;;13.00;;